sensor_id;sensor_type;location;lat;lon;timestamp;pressure;altitude;pressure_sealevel;temperature;humidity
32330;BME280;18807;52.434;13.238;2022-10-22T00:03:55;100657.47;;;13.64;100.00
32330;BME280;18807;52.434;13.238;2022-10-22T00:11:30;100666.38;;;13.62;100.00
32330;BME280;18807;52.434;13.238;2022-10-22T00:19:04;100661.00;;;13.60;100.00
32330;BME280;18807;52.434;13.238;2022-10-22T00:26:39;100652.09;;;13.61;100.00
32330;BME280;18807;52.434;13.238;2022-10-22T00:34:13;100645.81;;;13.59;100.00
32330;BME280;18807;52.434;13.238;2022-10-22T00:41:50;100637.75;;;13.53;100.00
32330;BME280;18807;52.434;13.238;2022-10-22T00:49:24;100647.59;;;13.48;100.00
32330;BME280;18807;52.434;13.238;2022-10-22T00:56:59;100659.19;;;13.40;100.00
32330;BME280;18807;52.434;13.238;2022-10-22T01:04:33;100675.28;;;13.35;100.00
32330;BME280;18807;52.434;13.238;2022-10-22T01:12:13;100677.97;;;13.35;100.00
32330;BME280;18807;52.434;13.238;2022-10-22T01:20:00;100651.16;;;13.44;100.00
32330;BME280;18807;52.434;13.238;2022-10-22T01:27:51;100635.97;;;13.46;100.00
32330;BME280;18807;52.434;13.238;2022-10-22T01:35:32;100637.75;;;13.46;100.00
32330;BME280;18807;52.434;13.238;2022-10-22T01:43:09;100644.00;;;13.45;100.00
32330;BME280;18807;52.434;13.238;2022-10-22T01:51:04;100654.72;;;13.42;100.00
32330;BME280;18807;52.434;13.238;2022-10-22T01:58:44;100658.31;;;13.36;100.00
32330;BME280;18807;52.434;13.238;2022-10-22T02:06:24;100665.44;;;13.33;100.00
32330;BME280;18807;52.434;13.238;2022-10-22T02:14:02;100675.28;;;13.31;100.00
32330;BME280;18807;52.434;13.238;2022-10-22T02:21:38;100657.38;;;13.28;100.00
32330;BME280;18807;52.434;13.238;2022-10-22T02:29:14;100658.28;;;13.23;100.00
32330;BME280;18807;52.434;13.238;2022-10-22T02:36:52;100665.41;;;13.21;100.00
32330;BME280;18807;52.434;13.238;2022-10-22T02:44:27;100659.16;;;13.17;100.00
32330;BME280;18807;52.434;13.238;2022-10-22T02:52:02;100671.66;;;13.14;100.00
32330;BME280;18807;52.434;13.238;2022-10-22T02:59:36;100660.00;;;13.10;100.00
32330;BME280;18807;52.434;13.238;2022-10-22T03:07:11;100654.66;;;13.10;100.00
32330;BME280;18807;52.434;13.238;2022-10-22T03:14:45;100650.19;;;13.09;100.00
32330;BME280;18807;52.434;13.238;2022-10-22T03:22:22;100659.13;;;13.08;100.00
32330;BME280;18807;52.434;13.238;2022-10-22T03:29:58;100646.59;;;13.04;100.00
32330;BME280;18807;52.434;13.238;2022-10-22T03:37:35;100648.41;;;13.04;100.00
32330;BME280;18807;52.434;13.238;2022-10-22T03:45:10;100654.63;;;13.01;100.00
32330;BME280;18807;52.434;13.238;2022-10-22T03:52:45;100661.78;;;13.01;100.00
32330;BME280;18807;52.434;13.238;2022-10-22T04:00:19;100668.03;;;13.00;100.00
32330;BME280;18807;52.434;13.238;2022-10-22T04:07:54;100693.91;;;12.98;100.00
32330;BME280;18807;52.434;13.238;2022-10-22T04:15:27;100694.78;;;12.95;100.00
32330;BME280;18807;52.434;13.238;2022-10-22T04:23:02;100705.50;;;12.97;100.00
32330;BME280;18807;52.434;13.238;2022-10-22T04:30:38;100697.47;;;12.98;100.00
32330;BME280;18807;52.434;13.238;2022-10-22T04:38:13;100709.16;;;13.00;100.00
32330;BME280;18807;52.434;13.238;2022-10-22T04:45:46;100692.13;;;12.98;100.00
32330;BME280;18807;52.434;13.238;2022-10-22T04:53:21;100680.50;;;12.96;100.00
32330;BME280;18807;52.434;13.238;2022-10-22T05:04:27;100694.78;;;12.94;100.00
32330;BME280;18807;52.434;13.238;2022-10-22T05:12:00;100696.56;;;12.90;100.00
32330;BME280;18807;52.434;13.238;2022-10-22T05:19:36;100700.09;;;12.86;100.00
32330;BME280;18807;52.434;13.238;2022-10-22T05:27:10;100701.88;;;12.81;100.00
32330;BME280;18807;52.434;13.238;2022-10-22T05:34:46;100714.38;;;12.79;100.00
32330;BME280;18807;52.434;13.238;2022-10-22T05:42:20;100715.25;;;12.75;100.00
32330;BME280;18807;52.434;13.238;2022-10-22T05:49:55;100728.63;;;12.72;100.00
32330;BME280;18807;52.434;13.238;2022-10-22T05:57:29;100724.16;;;12.67;100.00
32330;BME280;18807;52.434;13.238;2022-10-22T06:05:05;100724.16;;;12.67;100.00
32330;BME280;18807;52.434;13.238;2022-10-22T06:12:38;100733.00;;;12.60;100.00
32330;BME280;18807;52.434;13.238;2022-10-22T06:20:14;100736.59;;;12.60;100.00
32330;BME280;18807;52.434;13.238;2022-10-22T06:27:48;100753.56;;;12.58;100.00
32330;BME280;18807;52.434;13.238;2022-10-22T06:35:24;100756.22;;;12.56;100.00
32330;BME280;18807;52.434;13.238;2022-10-22T06:42:58;100775.00;;;12.58;100.00
32330;BME280;18807;52.434;13.238;2022-10-22T06:50:34;100776.78;;;12.60;100.00
32330;BME280;18807;52.434;13.238;2022-10-22T06:58:07;100777.72;;;12.64;100.00
32330;BME280;18807;52.434;13.238;2022-10-22T07:05:42;100780.44;;;12.67;100.00
32330;BME280;18807;52.434;13.238;2022-10-22T07:13:16;100775.09;;;12.71;100.00
32330;BME280;18807;52.434;13.238;2022-10-22T07:20:51;100788.53;;;12.77;100.00
32330;BME280;18807;52.434;13.238;2022-10-22T07:28:25;100799.28;;;12.85;100.00
32330;BME280;18807;52.434;13.238;2022-10-22T07:36:03;100821.69;;;12.93;100.00
32330;BME280;18807;52.434;13.238;2022-10-22T07:43:37;100831.59;;;13.01;100.00
32330;BME280;18807;52.434;13.238;2022-10-22T07:51:12;100843.28;;;13.11;100.00
32330;BME280;18807;52.434;13.238;2022-10-22T07:58:46;100846.91;;;13.16;100.00
32330;BME280;18807;52.434;13.238;2022-10-22T08:06:21;100848.72;;;13.23;100.00
32330;BME280;18807;52.434;13.238;2022-10-22T08:13:54;100852.31;;;13.29;100.00
32330;BME280;18807;52.434;13.238;2022-10-22T08:21:30;100852.38;;;13.40;100.00
32330;BME280;18807;52.434;13.238;2022-10-22T08:29:03;100868.50;;;13.43;100.00
32330;BME280;18807;52.434;13.238;2022-10-22T08:36:38;100873.91;;;13.52;100.00
32330;BME280;18807;52.434;13.238;2022-10-22T08:44:22;100878.41;;;13.57;100.00
32330;BME280;18807;52.434;13.238;2022-10-22T08:52:02;100877.59;;;13.69;100.00
32330;BME280;18807;52.434;13.238;2022-10-22T08:59:41;100885.69;;;13.79;100.00
32330;BME280;18807;52.434;13.238;2022-10-22T09:07:19;100883.03;;;13.90;100.00
32330;BME280;18807;52.434;13.238;2022-10-22T09:14:53;100890.25;;;14.03;100.00
32330;BME280;18807;52.434;13.238;2022-10-22T09:22:33;100899.22;;;14.20;100.00
32330;BME280;18807;52.434;13.238;2022-10-22T09:30:13;100903.75;;;14.35;100.00
32330;BME280;18807;52.434;13.238;2022-10-22T09:37:52;100909.16;;;14.51;100.00
32330;BME280;18807;52.434;13.238;2022-10-22T09:45:26;100910.09;;;14.58;100.00
32330;BME280;18807;52.434;13.238;2022-10-22T09:53:04;100910.97;;;14.70;100.00
32330;BME280;18807;52.434;13.238;2022-10-22T10:00:39;100925.34;;;14.78;100.00
32330;BME280;18807;52.434;13.238;2022-10-22T10:08:16;100917.28;;;14.84;100.00
32330;BME280;18807;52.434;13.238;2022-10-22T10:15:54;100926.25;;;14.94;100.00
32330;BME280;18807;52.434;13.238;2022-10-22T10:23:35;100923.56;;;15.00;100.00
32330;BME280;18807;52.434;13.238;2022-10-22T10:31:20;100917.28;;;15.05;100.00
32330;BME280;18807;52.434;13.238;2022-10-22T10:39:05;100916.38;;;15.11;100.00
32330;BME280;18807;52.434;13.238;2022-10-22T10:46:46;100919.06;;;15.17;100.00
32330;BME280;18807;52.434;13.238;2022-10-22T10:54:35;100918.13;;;15.24;100.00
32330;BME280;18807;52.434;13.238;2022-10-22T11:02:30;100916.38;;;15.38;100.00
32330;BME280;18807;52.434;13.238;2022-10-22T11:10:21;100922.59;;;15.50;100.00
32330;BME280;18807;52.434;13.238;2022-10-22T11:18:02;100926.16;;;15.66;100.00
32330;BME280;18807;52.434;13.238;2022-10-22T11:25:44;100912.66;;;15.81;100.00
32330;BME280;18807;52.434;13.238;2022-10-22T11:33:21;100919.78;;;15.94;100.00
32330;BME280;18807;52.434;13.238;2022-10-22T11:40:59;100922.41;;;16.09;100.00
32330;BME280;18807;52.434;13.238;2022-10-22T11:48:36;100917.81;;;16.26;100.00
32330;BME280;18807;52.434;13.238;2022-10-22T11:56:23;100914.19;;;16.36;100.00
32330;BME280;18807;52.434;13.238;2022-10-22T12:04:19;100915.91;;;16.49;100.00
32330;BME280;18807;52.434;13.238;2022-10-22T12:12:01;100919.38;;;16.66;100.00
32330;BME280;18807;52.434;13.238;2022-10-22T12:19:37;100914.78;;;16.82;100.00
32330;BME280;18807;52.434;13.238;2022-10-22T12:27:17;100929.09;;;16.88;100.00
32330;BME280;18807;52.434;13.238;2022-10-22T12:34:54;100929.91;;;16.99;100.00
32330;BME280;18807;52.434;13.238;2022-10-22T12:42:29;100926.22;;;17.09;100.00
32330;BME280;18807;52.434;13.238;2022-10-22T12:50:03;100918.94;;;17.19;100.00
32330;BME280;18807;52.434;13.238;2022-10-22T12:57:39;100921.56;;;17.28;100.00
32330;BME280;18807;52.434;13.238;2022-10-22T13:05:16;100933.19;;;17.34;100.00
32330;BME280;18807;52.434;13.238;2022-10-22T13:12:56;100934.09;;;17.35;100.00
32330;BME280;18807;52.434;13.238;2022-10-22T13:20:31;100933.13;;;17.40;100.00
32330;BME280;18807;52.434;13.238;2022-10-22T13:28:18;100938.47;;;17.49;100.00
32330;BME280;18807;52.434;13.238;2022-10-22T13:35:54;100950.13;;;17.56;100.00
32330;BME280;18807;52.434;13.238;2022-10-22T13:43:30;100940.09;;;17.65;100.00
32330;BME280;18807;52.434;13.238;2022-10-22T13:51:09;100945.47;;;17.67;100.00
32330;BME280;18807;52.434;13.238;2022-10-22T13:58:47;100953.59;;;17.67;100.00
32330;BME280;18807;52.434;13.238;2022-10-22T14:06:21;100959.78;;;17.76;100.00
32330;BME280;18807;52.434;13.238;2022-10-22T14:13:56;100959.81;;;17.75;100.00
32330;BME280;18807;52.434;13.238;2022-10-22T14:21:34;100966.06;;;17.80;100.00
32330;BME280;18807;52.434;13.238;2022-10-22T14:29:09;100964.31;;;17.74;100.00
32330;BME280;18807;52.434;13.238;2022-10-22T14:36:43;100967.03;;;17.73;100.00
32330;BME280;18807;52.434;13.238;2022-10-22T14:44:18;100967.94;;;17.72;100.00
32330;BME280;18807;52.434;13.238;2022-10-22T14:51:52;100971.63;;;17.66;100.00
32330;BME280;18807;52.434;13.238;2022-10-22T14:59:27;100977.06;;;17.62;100.00
32330;BME280;18807;52.434;13.238;2022-10-22T15:07:01;100979.91;;;17.50;100.00
32330;BME280;18807;52.434;13.238;2022-10-22T15:14:36;100978.16;;;17.40;100.00
32330;BME280;18807;52.434;13.238;2022-10-22T15:22:10;100991.81;;;17.23;100.00
32330;BME280;18807;52.434;13.238;2022-10-22T15:29:45;100991.94;;;17.05;100.00
32330;BME280;18807;52.434;13.238;2022-10-22T15:37:19;100991.16;;;16.88;100.00
32330;BME280;18807;52.434;13.238;2022-10-22T15:44:57;100999.41;;;16.72;100.00
32330;BME280;18807;52.434;13.238;2022-10-22T15:52:31;101002.19;;;16.54;100.00
32330;BME280;18807;52.434;13.238;2022-10-22T16:00:08;101004.03;;;16.34;100.00
32330;BME280;18807;52.434;13.238;2022-10-22T16:07:42;101018.50;;;16.16;100.00
32330;BME280;18807;52.434;13.238;2022-10-22T16:15:17;101015.84;;;15.98;100.00
32330;BME280;18807;52.434;13.238;2022-10-22T16:22:51;101028.47;;;15.81;100.00
32330;BME280;18807;52.434;13.238;2022-10-22T16:30:26;101024.03;;;15.60;100.00
32330;BME280;18807;52.434;13.238;2022-10-22T16:38:00;101025.81;;;15.43;100.00
32330;BME280;18807;52.434;13.238;2022-10-22T16:45:35;101045.53;;;15.35;100.00
32330;BME280;18807;52.434;13.238;2022-10-22T16:53:09;101054.50;;;15.16;100.00
32330;BME280;18807;52.434;13.238;2022-10-22T17:00:44;101067.03;;;15.02;100.00
32330;BME280;18807;52.434;13.238;2022-10-22T17:08:17;101079.59;;;14.92;100.00
32330;BME280;18807;52.434;13.238;2022-10-22T17:16:00;101087.63;;;14.79;100.00
32330;BME280;18807;52.434;13.238;2022-10-22T17:23:33;101096.53;;;14.64;100.00
32330;BME280;18807;52.434;13.238;2022-10-22T17:31:13;101111.72;;;14.55;100.00
32330;BME280;18807;52.434;13.238;2022-10-22T17:38:52;101113.44;;;14.45;100.00
32330;BME280;18807;52.434;13.238;2022-10-22T17:46:29;101122.34;;;14.34;100.00
32330;BME280;18807;52.434;13.238;2022-10-22T17:54:07;101124.13;;;14.30;100.00
32330;BME280;18807;52.434;13.238;2022-10-22T18:01:43;101125.94;;;14.30;100.00
32330;BME280;18807;52.434;13.238;2022-10-22T18:09:18;101127.69;;;14.28;100.00
32330;BME280;18807;52.434;13.238;2022-10-22T18:16:55;101129.50;;;14.26;100.00
32330;BME280;18807;52.434;13.238;2022-10-22T18:24:28;101135.69;;;14.22;100.00
32330;BME280;18807;52.434;13.238;2022-10-22T18:32:03;101130.25;;;14.14;100.00
